createdAt,value
2017-09-27T00:00:58.436Z,0
2017-09-27T00:01:58.417Z,0
2017-09-27T00:02:58.400Z,0
2017-09-27T00:03:58.361Z,0
2017-09-27T00:04:58.395Z,0
2017-09-27T00:05:58.332Z,0
2017-09-27T00:06:58.302Z,0
2017-09-27T00:07:57.970Z,0
2017-09-27T00:08:58.000Z,0
2017-09-27T00:09:57.933Z,0
2017-09-27T00:10:57.410Z,0
2017-09-27T00:11:58.196Z,0
2017-09-27T00:12:58.170Z,0
2017-09-27T00:13:58.142Z,0
2017-09-27T00:14:58.130Z,0
2017-09-27T00:15:58.098Z,0
2017-09-27T00:16:57.780Z,0
2017-09-27T00:17:58.078Z,0
2017-09-27T00:18:58.107Z,0
2017-09-27T00:19:57.699Z,0
2017-09-27T00:20:57.684Z,0
2017-09-27T00:21:57.972Z,0
2017-09-27T00:22:57.943Z,0
2017-09-27T00:23:57.934Z,0
2017-09-27T00:24:57.599Z,0
2017-09-27T00:25:57.567Z,0
2017-09-27T00:26:57.563Z,0
2017-09-27T00:27:57.838Z,0
2017-09-27T00:28:57.798Z,0
2017-09-27T00:29:57.796Z,0
2017-09-27T00:30:57.459Z,0
2017-09-27T00:31:57.741Z,0
2017-09-27T00:32:57.711Z,0
2017-09-27T00:33:57.421Z,0
2017-09-27T00:34:57.674Z,0
2017-09-27T00:35:57.688Z,0
2017-09-27T00:36:57.629Z,0
2017-09-27T00:37:57.652Z,0
2017-09-27T00:38:57.592Z,0
2017-09-27T00:39:57.560Z,0
2017-09-27T00:40:57.546Z,0
2017-09-27T00:41:57.509Z,0
2017-09-27T00:42:56.878Z,0
2017-09-27T00:43:57.469Z,0
2017-09-27T00:44:57.451Z,0
2017-09-27T00:45:57.416Z,0
2017-09-27T00:46:57.402Z,0
2017-09-27T00:47:57.428Z,0
2017-09-27T00:48:57.044Z,0
2017-09-27T00:49:57.338Z,0
2017-09-27T00:50:57.359Z,0
2017-09-27T00:51:57.286Z,0
2017-09-27T00:52:57.269Z,0
2017-09-27T00:53:57.246Z,0
2017-09-27T00:54:57.228Z,0
2017-09-27T00:55:57.194Z,0
2017-09-27T00:56:57.192Z,0
2017-09-27T00:57:57.153Z,0
2017-09-27T00:58:56.832Z,0
2017-09-27T00:59:56.803Z,0
2017-09-27T01:00:56.776Z,0
2017-09-27T01:01:57.079Z,0
2017-09-27T01:02:57.046Z,0
2017-09-27T01:03:57.067Z,0
2017-09-27T01:04:56.695Z,0
2017-09-27T01:05:56.972Z,0
2017-09-27T01:06:56.957Z,0
2017-09-27T01:07:56.935Z,0
2017-09-27T01:08:56.907Z,0
2017-09-27T01:09:56.889Z,0
2017-09-27T01:10:56.865Z,0
2017-09-27T01:11:56.528Z,0
2017-09-27T01:12:56.819Z,0
2017-09-27T01:13:56.802Z,0
2017-09-27T01:14:56.770Z,0
2017-09-27T01:15:56.757Z,0
2017-09-27T01:16:56.714Z,0
2017-09-27T01:17:56.709Z,0
2017-09-27T01:18:56.677Z,0
2017-09-27T01:19:56.672Z,0
2017-09-27T01:20:56.646Z,0
2017-09-27T01:21:56.605Z,0
2017-09-27T01:22:55.725Z,0
2017-09-27T01:23:56.268Z,0
2017-09-27T01:24:56.554Z,0
2017-09-27T01:25:56.525Z,0
2017-09-27T01:26:56.507Z,0
2017-09-27T01:27:56.483Z,0
2017-09-27T01:28:56.452Z,0
2017-09-27T01:29:56.447Z,0
2017-09-27T01:30:56.102Z,0
2017-09-27T01:31:56.388Z,0
2017-09-27T01:32:56.371Z,0
2017-09-27T01:33:56.356Z,0
2017-09-27T01:34:56.320Z,0
2017-09-27T01:35:55.997Z,0
2017-09-27T01:36:56.275Z,0
2017-09-27T01:37:56.281Z,0
2017-09-27T01:38:56.242Z,0
2017-09-27T01:39:56.206Z,0
2017-09-27T01:40:56.192Z,0
2017-09-27T01:41:56.160Z,0
2017-09-27T01:42:56.145Z,0
2017-09-27T01:43:56.119Z,0
2017-09-27T01:44:56.112Z,0
2017-09-27T01:45:56.076Z,0
2017-09-27T01:46:56.050Z,0
2017-09-27T01:47:56.031Z,0
2017-09-27T01:48:55.701Z,0
2017-09-27T01:49:55.995Z,0
2017-09-27T01:50:55.967Z,0
2017-09-27T01:51:55.940Z,0
2017-09-27T01:52:55.625Z,0
2017-09-27T01:53:55.892Z,0
2017-09-27T01:54:55.872Z,0
2017-09-27T01:55:55.872Z,0
2017-09-27T01:56:55.833Z,0
2017-09-27T01:57:55.857Z,0
2017-09-27T01:58:55.783Z,0
2017-09-27T01:59:55.758Z,0
2017-09-27T02:00:55.783Z,0
2017-09-27T02:01:55.712Z,0
2017-09-27T02:02:55.700Z,0
2017-09-27T02:03:55.672Z,0
2017-09-27T02:04:55.652Z,0
2017-09-27T02:05:55.321Z,0
2017-09-27T02:06:55.609Z,0
2017-09-27T02:07:55.585Z,0
2017-09-27T02:08:55.566Z,0
2017-09-27T02:09:55.543Z,0
2017-09-27T02:10:55.517Z,0
2017-09-27T02:11:55.501Z,0
2017-09-27T02:12:55.521Z,0
2017-09-27T02:13:55.451Z,0
2017-09-27T02:14:55.489Z,0
2017-09-27T02:15:55.094Z,0
2017-09-27T02:16:55.373Z,0
2017-09-27T02:17:55.044Z,0
2017-09-27T02:18:55.033Z,0
2017-09-27T02:19:55.010Z,0
2017-09-27T02:20:55.294Z,0
2017-09-27T02:21:55.327Z,0
2017-09-27T02:22:54.939Z,0
2017-09-27T02:23:55.268Z,0
2017-09-27T02:24:54.890Z,0
2017-09-27T02:25:55.172Z,0
2017-09-27T02:26:55.165Z,0
2017-09-27T02:27:55.130Z,0
2017-09-27T02:28:55.117Z,0
2017-09-27T02:29:54.836Z,0
2017-09-27T02:30:55.077Z,0
2017-09-27T02:31:55.093Z,0
2017-09-27T02:32:54.709Z,0
2017-09-27T02:33:54.998Z,0
2017-09-27T02:34:55.032Z,0
2017-09-27T02:35:54.653Z,0
2017-09-27T02:36:54.627Z,0
2017-09-27T02:37:54.904Z,0
2017-09-27T02:38:54.893Z,0
2017-09-27T02:39:54.873Z,0
2017-09-27T02:40:54.846Z,0
2017-09-27T02:41:54.537Z,0
2017-09-27T02:42:54.800Z,0
2017-09-27T02:43:54.794Z,0
2017-09-27T02:44:54.753Z,0
2017-09-27T02:45:54.739Z,0
2017-09-27T02:46:54.713Z,0
2017-09-27T02:47:54.687Z,0
2017-09-27T02:48:54.693Z,0
2017-09-27T02:49:54.645Z,0
2017-09-27T02:50:54.615Z,0
2017-09-27T02:51:54.603Z,0
2017-09-27T02:52:54.625Z,0
2017-09-27T02:53:54.265Z,0
2017-09-27T02:54:54.531Z,0
2017-09-27T02:55:54.500Z,0
2017-09-27T02:56:54.530Z,0
2017-09-27T02:57:54.151Z,0
2017-09-27T02:58:54.434Z,0
2017-09-27T02:59:54.115Z,0
2017-09-27T03:00:54.391Z,0
2017-09-27T03:01:54.370Z,0
2017-09-27T03:02:54.347Z,0
2017-09-27T03:03:54.368Z,0
2017-09-27T03:04:54.297Z,0
2017-09-27T03:05:54.277Z,0
2017-09-27T03:06:54.256Z,0
2017-09-27T03:07:53.929Z,0
2017-09-27T03:08:54.211Z,0
2017-09-27T03:09:54.190Z,0
2017-09-27T03:10:54.213Z,0
2017-09-27T03:11:54.730Z,0
2017-09-27T03:12:54.125Z,0
2017-09-27T03:13:54.097Z,0
2017-09-27T03:14:54.072Z,0
2017-09-27T03:15:54.063Z,0
2017-09-27T03:16:53.734Z,0
2017-09-27T03:17:54.010Z,0
2017-09-27T03:18:53.987Z,0
2017-09-27T03:19:53.972Z,0
2017-09-27T03:20:53.639Z,0
2017-09-27T03:21:53.617Z,0
2017-09-27T03:22:53.905Z,0
2017-09-27T03:23:53.883Z,0
2017-09-27T03:24:53.864Z,0
2017-09-27T03:25:53.835Z,0
2017-09-27T03:26:53.513Z,0
2017-09-27T03:27:53.818Z,0
2017-09-27T03:28:53.764Z,0
2017-09-27T03:29:53.741Z,0
2017-09-27T03:30:53.729Z,0
2017-09-27T03:31:53.699Z,0
2017-09-27T03:32:53.697Z,0
2017-09-27T03:33:53.655Z,0
2017-09-27T03:34:53.630Z,0
2017-09-27T03:35:53.619Z,0
2017-09-27T03:36:53.580Z,0
2017-09-27T03:37:53.567Z,0
2017-09-27T03:38:53.546Z,0
2017-09-27T03:39:53.522Z,0
2017-09-27T03:40:53.500Z,0
2017-09-27T03:41:53.479Z,0
2017-09-27T03:42:53.460Z,0
2017-09-27T03:43:53.437Z,0
2017-09-27T03:44:53.097Z,0
2017-09-27T03:45:53.078Z,0
2017-09-27T03:46:53.359Z,0
2017-09-27T03:47:53.392Z,0
2017-09-27T03:48:53.314Z,0
2017-09-27T03:49:53.298Z,0
2017-09-27T03:50:53.327Z,0
2017-09-27T03:51:53.262Z,0
2017-09-27T03:52:53.284Z,0
2017-09-27T03:53:53.209Z,0
2017-09-27T03:54:53.183Z,0
2017-09-27T03:55:53.171Z,0
2017-09-27T03:56:53.134Z,0
2017-09-27T03:57:53.117Z,0
2017-09-27T03:58:53.113Z,0
2017-09-27T03:59:53.087Z,0
2017-09-27T04:00:53.063Z,0
2017-09-27T04:01:52.759Z,0
2017-09-27T04:02:53.032Z,0
2017-09-27T04:03:53.044Z,0
2017-09-27T04:04:52.967Z,0
2017-09-27T04:05:52.953Z,0
2017-09-27T04:06:52.916Z,0
2017-09-27T04:07:52.905Z,0
2017-09-27T04:08:52.883Z,0
2017-09-27T04:09:52.875Z,0
2017-09-27T04:10:52.821Z,0
2017-09-27T04:11:52.862Z,0
2017-09-27T04:12:52.797Z,0
2017-09-27T04:13:52.458Z,0
2017-09-27T04:14:52.736Z,0
2017-09-27T04:15:52.719Z,0
2017-09-27T04:16:52.691Z,0
2017-09-27T04:17:52.673Z,0
2017-09-27T04:18:52.352Z,0
2017-09-27T04:19:52.641Z,0
2017-09-27T04:20:52.622Z,0
2017-09-27T04:21:52.576Z,0
2017-09-27T04:22:52.573Z,0
2017-09-27T04:23:52.538Z,0
2017-09-27T04:24:52.515Z,0
2017-09-27T04:25:52.494Z,0
2017-09-27T04:26:52.472Z,0
2017-09-27T04:27:52.454Z,0
2017-09-27T04:28:52.124Z,0
2017-09-27T04:29:52.412Z,0
2017-09-27T04:30:52.135Z,0
2017-09-27T04:31:52.058Z,0
2017-09-27T04:32:52.338Z,0
2017-09-27T04:33:52.379Z,0
2017-09-27T04:34:52.285Z,0
2017-09-27T04:35:52.265Z,0
2017-09-27T04:36:52.260Z,0
2017-09-27T04:37:52.229Z,0
2017-09-27T04:38:52.202Z,0
2017-09-27T04:39:52.190Z,0
2017-09-27T04:40:52.224Z,0
2017-09-27T04:41:52.148Z,0
2017-09-27T04:42:52.127Z,0
2017-09-27T04:43:52.092Z,0
2017-09-27T04:44:52.070Z,0
2017-09-27T04:45:52.049Z,0
2017-09-27T04:46:52.024Z,0
2017-09-27T04:47:52.010Z,0
2017-09-27T04:48:51.990Z,0
2017-09-27T04:49:52.020Z,0
2017-09-27T04:50:51.937Z,0
2017-09-27T04:51:51.926Z,0
2017-09-27T04:52:51.893Z,0
2017-09-27T04:53:51.873Z,0
2017-09-27T04:54:51.860Z,0
2017-09-27T04:55:51.867Z,0
2017-09-27T04:56:51.812Z,0
2017-09-27T04:57:51.793Z,0
2017-09-27T04:58:51.763Z,0
2017-09-27T04:59:51.736Z,0
2017-09-27T05:00:51.413Z,0
2017-09-27T05:01:51.690Z,0
2017-09-27T05:02:51.732Z,0
2017-09-27T05:03:51.653Z,0
2017-09-27T05:04:51.626Z,0
2017-09-27T05:05:51.607Z,0
2017-09-27T05:06:51.577Z,0
2017-09-27T05:07:51.563Z,0
2017-09-27T05:08:51.541Z,0
2017-09-27T05:09:51.264Z,0
2017-09-27T05:10:51.495Z,0
2017-09-27T05:11:51.166Z,0
2017-09-27T05:12:51.443Z,0
2017-09-27T05:13:51.425Z,0
2017-09-27T05:14:51.408Z,0
2017-09-27T05:15:51.388Z,0
2017-09-27T05:16:51.352Z,0
2017-09-27T05:17:51.349Z,0
2017-09-27T05:18:51.319Z,0
2017-09-27T05:19:51.297Z,0
2017-09-27T05:20:51.271Z,0
2017-09-27T05:21:51.253Z,0
2017-09-27T05:22:51.262Z,0
2017-09-27T05:23:50.906Z,0
2017-09-27T05:24:50.875Z,5
2017-09-27T05:25:51.164Z,5
2017-09-27T05:26:51.131Z,5
2017-09-27T05:27:51.116Z,5
2017-09-27T05:28:50.781Z,5
2017-09-27T05:29:51.069Z,5
2017-09-27T05:30:51.049Z,5
2017-09-27T05:31:51.042Z,5
2017-09-27T05:32:50.998Z,5
2017-09-27T05:33:51.006Z,5
2017-09-27T05:34:50.708Z,10
2017-09-27T05:35:50.934Z,10
2017-09-27T05:36:50.925Z,10
2017-09-27T05:37:50.892Z,10
2017-09-27T05:38:50.861Z,10
2017-09-27T05:39:50.857Z,10
2017-09-27T05:40:50.520Z,15
2017-09-27T05:41:50.796Z,15
2017-09-27T05:42:50.790Z,15
2017-09-27T05:43:50.761Z,15
2017-09-27T05:44:50.435Z,15
2017-09-27T05:45:50.720Z,15
2017-09-27T05:46:50.685Z,15
2017-09-27T05:47:50.670Z,15
2017-09-27T05:48:50.649Z,15
2017-09-27T05:49:50.631Z,15
2017-09-27T05:50:50.606Z,15
2017-09-27T05:51:50.581Z,20
2017-09-27T05:52:50.577Z,20
2017-09-27T05:53:50.229Z,20
2017-09-27T05:54:50.265Z,20
2017-09-27T05:55:50.482Z,20
2017-09-27T05:56:50.459Z,20
2017-09-27T05:57:50.440Z,20
2017-09-27T05:58:50.176Z,25
2017-09-27T05:59:50.403Z,25
2017-09-27T06:00:50.375Z,25
2017-09-27T06:01:50.047Z,25
2017-09-27T06:02:50.329Z,25
2017-09-27T06:03:50.340Z,25
2017-09-27T06:04:50.285Z,25
2017-09-27T06:05:49.964Z,25
2017-09-27T06:06:50.242Z,25
2017-09-27T06:07:50.216Z,25
2017-09-27T06:08:50.201Z,30
2017-09-27T06:09:50.173Z,30
2017-09-27T06:10:50.148Z,30
2017-09-27T06:11:50.129Z,30
2017-09-27T06:12:49.793Z,30
2017-09-27T06:13:50.082Z,30
2017-09-27T06:14:50.060Z,30
2017-09-27T06:15:50.044Z,30
2017-09-27T06:16:50.021Z,35
2017-09-27T06:17:50.021Z,35
2017-09-27T06:18:49.976Z,35
2017-09-27T06:19:49.952Z,35
2017-09-27T06:20:49.943Z,40
2017-09-27T06:21:49.900Z,40
2017-09-27T06:22:49.879Z,40
2017-09-27T06:23:49.866Z,40
2017-09-27T06:24:49.841Z,45
2017-09-27T06:25:49.817Z,45
2017-09-27T06:26:49.877Z,50
2017-09-27T06:27:49.781Z,50
2017-09-27T06:28:49.448Z,50
2017-09-27T06:29:49.729Z,50
2017-09-27T06:30:49.715Z,50
2017-09-27T06:31:49.728Z,50
2017-09-27T06:32:49.661Z,50
2017-09-27T06:33:49.635Z,50
2017-09-27T06:34:49.619Z,55
2017-09-27T06:35:49.593Z,55
2017-09-27T06:36:49.570Z,55
2017-09-27T06:37:49.857Z,55
2017-09-27T06:38:49.529Z,60
2017-09-27T06:39:49.651Z,60
2017-09-27T06:40:49.479Z,60
2017-09-27T06:41:49.693Z,60
2017-09-27T06:42:49.438Z,65
2017-09-27T06:43:49.466Z,65
2017-09-27T06:44:49.400Z,65
2017-09-27T06:45:49.377Z,65
2017-09-27T06:46:49.380Z,65
2017-09-27T06:47:49.322Z,70
2017-09-27T06:48:49.311Z,70
2017-09-27T06:49:48.963Z,70
2017-09-27T06:50:48.957Z,70
2017-09-27T06:51:49.227Z,70
2017-09-27T06:52:48.905Z,70
2017-09-27T06:53:49.201Z,70
2017-09-27T06:54:48.858Z,70
2017-09-27T06:55:49.143Z,70
2017-09-27T06:56:49.124Z,70
2017-09-27T06:57:48.804Z,70
2017-09-27T06:58:49.080Z,70
2017-09-27T06:59:49.062Z,70
2017-09-27T07:00:48.745Z,70
2017-09-27T07:01:49.024Z,70
2017-09-27T07:02:48.993Z,70
2017-09-27T07:03:48.964Z,75
2017-09-27T07:04:48.962Z,75
2017-09-27T07:05:48.931Z,75
2017-09-27T07:06:48.908Z,80
2017-09-27T07:07:48.574Z,80
2017-09-27T07:08:48.859Z,85
2017-09-27T07:09:48.857Z,85
2017-09-27T07:10:48.823Z,85
2017-09-27T07:11:48.821Z,85
2017-09-27T07:12:48.766Z,85
2017-09-27T07:13:48.451Z,85
2017-09-27T07:14:48.724Z,85
2017-09-27T07:15:48.403Z,85
2017-09-27T07:16:48.079Z,85
2017-09-27T07:17:48.672Z,85
2017-09-27T07:18:48.340Z,85
2017-09-27T07:19:48.678Z,85
2017-09-27T07:20:48.609Z,85
2017-09-27T07:21:48.577Z,85
2017-09-27T07:22:48.544Z,85
2017-09-27T07:23:48.560Z,90
2017-09-27T07:24:48.211Z,90
2017-09-27T07:25:48.186Z,90
2017-09-27T07:26:48.459Z,85
2017-09-27T07:27:48.440Z,85
2017-09-27T07:28:48.414Z,85
2017-09-27T07:29:48.392Z,85
2017-09-27T07:30:48.391Z,85
2017-09-27T07:31:48.046Z,90
2017-09-27T07:32:48.337Z,90
2017-09-27T07:33:48.320Z,90
2017-09-27T07:34:48.300Z,90
2017-09-27T07:35:48.256Z,90
2017-09-27T07:36:47.948Z,90
2017-09-27T07:37:48.220Z,90
2017-09-27T07:38:47.894Z,85
2017-09-27T07:39:48.487Z,85
2017-09-27T07:40:47.247Z,85
2017-09-27T07:41:47.832Z,85
2017-09-27T07:42:48.105Z,85
2017-09-27T07:43:47.785Z,90
2017-09-27T07:44:47.756Z,90
2017-09-27T07:45:48.052Z,90
2017-09-27T07:46:48.061Z,95
2017-09-27T07:47:48.000Z,100
2017-09-27T07:48:47.985Z,100
2017-09-27T07:49:47.948Z,105
2017-09-27T07:50:47.924Z,110
2017-09-27T07:51:47.901Z,115
2017-09-27T07:52:47.882Z,125
2017-09-27T07:53:47.867Z,130
2017-09-27T07:54:47.856Z,130
2017-09-27T07:55:47.512Z,140
2017-09-27T07:56:47.805Z,145
2017-09-27T07:57:47.806Z,150
2017-09-27T07:58:47.759Z,160
2017-09-27T07:59:47.779Z,160
2017-09-27T08:00:47.405Z,165
2017-09-27T08:01:47.693Z,165
2017-09-27T08:02:47.660Z,165
2017-09-27T08:03:47.653Z,165
2017-09-27T08:04:47.630Z,165
2017-09-27T08:05:47.289Z,165
2017-09-27T08:06:47.584Z,165
2017-09-27T08:07:47.562Z,165
2017-09-27T08:08:47.543Z,165
2017-09-27T08:09:47.515Z,165
2017-09-27T08:10:47.491Z,165
2017-09-27T08:11:47.169Z,170
2017-09-27T08:12:47.447Z,180
2017-09-27T08:13:47.431Z,185
2017-09-27T08:14:47.107Z,190
2017-09-27T08:15:47.100Z,200
2017-09-27T08:16:47.363Z,205
2017-09-27T08:17:47.338Z,210
2017-09-27T08:18:47.327Z,220
2017-09-27T08:19:47.291Z,230
2017-09-27T08:20:46.968Z,240
2017-09-27T08:21:46.949Z,245
2017-09-27T08:22:47.230Z,250
2017-09-27T08:23:47.217Z,255
2017-09-27T08:24:46.886Z,260
2017-09-27T08:25:47.173Z,260
2017-09-27T08:26:47.135Z,255
2017-09-27T08:27:47.134Z,255
2017-09-27T08:28:46.795Z,255
2017-09-27T08:29:47.089Z,255
2017-09-27T08:30:46.606Z,250
2017-09-27T08:31:47.047Z,250
2017-09-27T08:32:47.218Z,255
2017-09-27T08:33:46.387Z,245
2017-09-27T08:34:47.015Z,250
2017-09-27T08:35:46.969Z,250
2017-09-27T08:36:46.327Z,255
2017-09-27T08:37:46.926Z,260
2017-09-27T08:38:46.957Z,265
2017-09-27T08:39:46.593Z,265
2017-09-27T08:40:46.543Z,270
2017-09-27T08:41:46.527Z,275
2017-09-27T08:42:46.853Z,275
2017-09-27T08:43:46.830Z,280
2017-09-27T08:44:46.463Z,285
2017-09-27T08:45:46.748Z,295
2017-09-27T08:46:46.736Z,305
2017-09-27T08:47:46.384Z,315
2017-09-27T08:48:46.681Z,330
2017-09-27T08:49:46.041Z,345
2017-09-27T08:50:46.665Z,365
2017-09-27T08:51:46.607Z,375
2017-09-27T08:52:46.589Z,400
2017-09-27T08:53:46.578Z,415
2017-09-27T08:54:46.598Z,440
2017-09-27T08:55:46.523Z,470
2017-09-27T08:56:46.213Z,500
2017-09-27T08:57:46.533Z,550
2017-09-27T08:58:46.495Z,580
2017-09-27T08:59:46.135Z,655
2017-09-27T09:00:46.434Z,705
2017-09-27T09:01:46.419Z,715
2017-09-27T09:02:46.382Z,685
2017-09-27T09:03:46.365Z,775
2017-09-27T09:04:46.354Z,775
2017-09-27T09:05:46.322Z,855
2017-09-27T09:06:45.992Z,1015
2017-09-27T09:07:46.277Z,865
2017-09-27T09:08:45.970Z,845
2017-09-27T09:09:46.264Z,610
2017-09-27T09:10:46.220Z,590
2017-09-27T09:11:46.220Z,585
2017-09-27T09:12:46.177Z,575
2017-09-27T09:13:46.186Z,740
2017-09-27T09:14:46.202Z,615
2017-09-27T09:15:46.136Z,850
2017-09-27T09:16:46.108Z,855
2017-09-27T09:17:46.102Z,890
2017-09-27T09:18:46.100Z,820
2017-09-27T09:19:45.760Z,850
2017-09-27T09:20:45.764Z,765
2017-09-27T09:21:46.250Z,590
2017-09-27T09:22:46.013Z,610
2017-09-27T09:23:45.700Z,620
2017-09-27T09:24:45.678Z,745
2017-09-27T09:25:45.959Z,835
2017-09-27T09:26:45.946Z,730
2017-09-27T09:27:45.948Z,795
2017-09-27T09:28:45.917Z,775
2017-09-27T09:29:45.912Z,865
2017-09-27T09:30:45.562Z,865
2017-09-27T09:31:45.866Z,880
2017-09-27T09:32:45.540Z,870
2017-09-27T09:33:45.929Z,875
2017-09-27T09:34:45.820Z,880
2017-09-27T09:35:45.820Z,880
2017-09-27T09:36:45.782Z,880
2017-09-27T09:37:45.768Z,875
2017-09-27T09:38:45.751Z,860
2017-09-27T09:39:45.724Z,880
2017-09-27T09:40:45.733Z,890
2017-09-27T09:41:45.400Z,895
2017-09-27T09:42:45.702Z,870
2017-09-27T09:43:45.681Z,875
2017-09-27T09:44:45.672Z,845
2017-09-27T09:45:45.656Z,680
2017-09-27T09:46:45.648Z,400
2017-09-27T09:47:45.626Z,510
2017-09-27T09:48:45.354Z,415
2017-09-27T09:49:45.293Z,390
2017-09-27T09:50:45.281Z,375
2017-09-27T09:51:45.582Z,385
2017-09-27T09:52:45.299Z,390
2017-09-27T09:53:45.540Z,395
2017-09-27T09:54:45.528Z,395
2017-09-27T09:55:45.528Z,390
2017-09-27T09:56:45.184Z,375
2017-09-27T09:57:45.497Z,370
2017-09-27T09:58:45.465Z,365
2017-09-27T09:59:45.144Z,405
2017-09-27T10:00:45.424Z,415
2017-09-27T10:01:45.113Z,420
2017-09-27T10:02:45.406Z,425
2017-09-27T10:03:45.376Z,420
2017-09-27T10:04:45.409Z,415
2017-09-27T10:05:45.402Z,410
2017-09-27T10:06:45.326Z,410
2017-09-27T10:07:45.316Z,410
2017-09-27T10:08:45.311Z,415
2017-09-27T10:09:45.277Z,405
2017-09-27T10:10:44.957Z,400
2017-09-27T10:11:45.270Z,400
2017-09-27T10:12:45.242Z,395
2017-09-27T10:13:45.211Z,395
2017-09-27T10:14:45.206Z,390
2017-09-27T10:15:45.173Z,385
2017-09-27T10:16:45.160Z,380
2017-09-27T10:17:45.158Z,380
2017-09-27T10:18:45.122Z,380
2017-09-27T10:19:45.148Z,385
2017-09-27T10:20:45.104Z,390
2017-09-27T10:21:44.763Z,395
2017-09-27T10:22:45.066Z,415
2017-09-27T10:23:45.024Z,385
2017-09-27T10:24:45.019Z,360
2017-09-27T10:25:45.002Z,345
2017-09-27T10:26:44.975Z,335
2017-09-27T10:27:44.972Z,325
2017-09-27T10:28:44.646Z,310
2017-09-27T10:29:44.927Z,305
2017-09-27T10:30:44.910Z,325
2017-09-27T10:31:44.881Z,320
2017-09-27T10:32:44.873Z,345
2017-09-27T10:33:44.846Z,350
2017-09-27T10:34:44.827Z,325
2017-09-27T10:35:44.817Z,310
2017-09-27T10:36:44.483Z,315
2017-09-27T10:37:44.780Z,320
2017-09-27T10:38:44.745Z,310
2017-09-27T10:39:44.729Z,295
2017-09-27T10:40:44.768Z,295
2017-09-27T10:41:44.723Z,305
2017-09-27T10:42:44.420Z,300
2017-09-27T10:43:44.351Z,310
2017-09-27T10:44:44.637Z,310
2017-09-27T10:45:44.617Z,325
2017-09-27T10:46:44.608Z,325
2017-09-27T10:47:44.579Z,325
2017-09-27T10:48:44.569Z,330
2017-09-27T10:49:44.539Z,330
2017-09-27T10:50:44.526Z,325
2017-09-27T10:51:44.501Z,325
2017-09-27T10:52:44.193Z,330
2017-09-27T10:53:44.160Z,320
2017-09-27T10:54:44.135Z,315
2017-09-27T10:55:44.433Z,315
2017-09-27T10:56:44.406Z,310
2017-09-27T10:57:44.079Z,315
2017-09-27T10:58:44.370Z,315
2017-09-27T10:59:44.361Z,305
2017-09-27T11:00:44.054Z,305
2017-09-27T11:01:44.032Z,305
2017-09-27T11:02:44.335Z,310
2017-09-27T11:03:44.002Z,305
2017-09-27T11:04:44.285Z,300
2017-09-27T11:05:44.340Z,295
2017-09-27T11:06:44.248Z,295
2017-09-27T11:07:43.897Z,300
2017-09-27T11:08:44.204Z,300
2017-09-27T11:09:44.218Z,305
2017-09-27T11:10:44.147Z,300
2017-09-27T11:11:44.206Z,300
2017-09-27T11:12:44.123Z,295
2017-09-27T11:13:44.081Z,290
2017-09-27T11:14:44.061Z,285
2017-09-27T11:15:44.055Z,280
2017-09-27T11:16:44.029Z,280
2017-09-27T11:17:43.735Z,275
2017-09-27T11:18:43.982Z,275
2017-09-27T11:19:43.973Z,275
2017-09-27T11:20:43.637Z,270
2017-09-27T11:21:43.924Z,260
2017-09-27T11:22:43.905Z,250
2017-09-27T11:23:43.587Z,245
2017-09-27T11:24:43.868Z,255
2017-09-27T11:25:43.925Z,260
2017-09-27T11:26:43.824Z,260
2017-09-27T11:27:43.829Z,260
2017-09-27T11:28:43.787Z,260
2017-09-27T11:29:43.790Z,260
2017-09-27T11:30:43.806Z,260
2017-09-27T11:31:43.754Z,260
2017-09-27T11:32:43.417Z,255
2017-09-27T11:33:43.418Z,255
2017-09-27T11:34:43.667Z,255
2017-09-27T11:35:43.396Z,255
2017-09-27T11:36:43.665Z,255
2017-09-27T11:37:43.642Z,255
2017-09-27T11:38:43.654Z,255
2017-09-27T11:39:43.587Z,255
2017-09-27T11:40:43.565Z,255
2017-09-27T11:41:43.570Z,250
2017-09-27T11:42:43.520Z,250
2017-09-27T11:43:43.507Z,255
2017-09-27T11:44:43.516Z,260
2017-09-27T11:45:43.499Z,260
2017-09-27T11:46:43.537Z,255
2017-09-27T11:47:43.130Z,255
2017-09-27T11:48:43.450Z,250
2017-09-27T11:49:43.382Z,250
2017-09-27T11:50:43.365Z,245
2017-09-27T11:51:43.078Z,245
2017-09-27T11:52:43.321Z,245
2017-09-27T11:53:43.370Z,245
2017-09-27T11:54:43.003Z,240
2017-09-27T11:55:43.383Z,240
2017-09-27T11:56:42.927Z,235
2017-09-27T11:57:42.910Z,245
2017-09-27T11:58:42.893Z,240
2017-09-27T11:59:42.887Z,235
2017-09-27T12:00:43.171Z,235
2017-09-27T12:01:43.147Z,240
2017-09-27T12:02:42.822Z,245
2017-09-27T12:03:43.126Z,250
2017-09-27T12:04:43.100Z,250
2017-09-27T12:05:43.074Z,240
2017-09-27T12:06:43.079Z,230
2017-09-27T12:07:43.069Z,220
2017-09-27T12:08:42.699Z,210
2017-09-27T12:09:42.676Z,215
2017-09-27T12:10:43.002Z,235
2017-09-27T12:11:42.932Z,245
2017-09-27T12:12:42.923Z,245
2017-09-27T12:13:42.901Z,235
2017-09-27T12:14:42.914Z,230
2017-09-27T12:15:42.865Z,230
2017-09-27T12:16:42.844Z,225
2017-09-27T12:17:42.830Z,230
2017-09-27T12:18:42.491Z,225
2017-09-27T12:19:42.792Z,225
2017-09-27T12:20:42.785Z,230
2017-09-27T12:21:42.748Z,230
2017-09-27T12:22:42.728Z,230
2017-09-27T12:23:42.704Z,230
2017-09-27T12:24:42.740Z,230
2017-09-27T12:25:42.362Z,230
2017-09-27T12:26:42.660Z,230
2017-09-27T12:27:42.632Z,235
2017-09-27T12:28:42.618Z,240
2017-09-27T12:29:42.604Z,240
2017-09-27T12:30:42.580Z,240
2017-09-27T12:31:42.547Z,235
2017-09-27T12:32:42.533Z,230
2017-09-27T12:33:42.523Z,235
2017-09-27T12:34:42.489Z,240
2017-09-27T12:35:42.474Z,250
2017-09-27T12:36:42.460Z,255
2017-09-27T12:37:42.435Z,245
2017-09-27T12:38:42.415Z,235
2017-09-27T12:39:42.408Z,220
2017-09-27T12:40:42.079Z,215
2017-09-27T12:41:42.360Z,205
2017-09-27T12:42:42.019Z,195
2017-09-27T12:43:42.315Z,185
2017-09-27T12:44:42.000Z,185
2017-09-27T12:45:42.272Z,190
2017-09-27T12:46:42.320Z,195
2017-09-27T12:47:42.263Z,195
2017-09-27T12:48:41.918Z,200
2017-09-27T12:49:42.194Z,200
2017-09-27T12:50:42.189Z,205
2017-09-27T12:51:42.255Z,210
2017-09-27T12:52:42.147Z,215
2017-09-27T12:53:41.814Z,215
2017-09-27T12:54:41.485Z,210
2017-09-27T12:55:42.104Z,195
2017-09-27T12:56:42.072Z,195
2017-09-27T12:57:42.040Z,195
2017-09-27T12:58:42.033Z,180
2017-09-27T12:59:41.699Z,175
2017-09-27T13:00:41.689Z,170
2017-09-27T13:01:41.969Z,175
2017-09-27T13:02:41.938Z,185
2017-09-27T13:03:41.949Z,190
2017-09-27T13:04:41.910Z,175
2017-09-27T13:05:41.566Z,175
2017-09-27T13:06:41.563Z,180
2017-09-27T13:07:41.850Z,185
2017-09-27T13:08:41.835Z,190
2017-09-27T13:09:41.804Z,190
2017-09-27T13:10:41.786Z,190
2017-09-27T13:11:41.775Z,185
2017-09-27T13:12:41.486Z,175
2017-09-27T13:13:41.724Z,170
2017-09-27T13:14:41.707Z,165
2017-09-27T13:15:41.706Z,160
2017-09-27T13:16:41.665Z,160
2017-09-27T13:17:41.346Z,155
2017-09-27T13:18:41.318Z,155
2017-09-27T13:19:41.620Z,155
2017-09-27T13:20:41.340Z,150
2017-09-27T13:21:41.619Z,150
2017-09-27T13:22:41.547Z,150
2017-09-27T13:23:41.545Z,150
2017-09-27T13:24:41.528Z,155
2017-09-27T13:25:41.476Z,155
2017-09-27T13:26:41.471Z,150
2017-09-27T13:27:41.462Z,150
2017-09-27T13:28:41.488Z,145
2017-09-27T13:29:41.413Z,150
2017-09-27T13:30:41.401Z,155
2017-09-27T13:31:41.373Z,150
2017-09-27T13:32:41.359Z,150
2017-09-27T13:33:41.336Z,145
2017-09-27T13:34:41.312Z,145
2017-09-27T13:35:41.305Z,145
2017-09-27T13:36:41.289Z,145
2017-09-27T13:37:41.245Z,145
2017-09-27T13:38:40.934Z,145
2017-09-27T13:39:41.217Z,150
2017-09-27T13:40:41.205Z,150
2017-09-27T13:41:41.174Z,145
2017-09-27T13:42:40.851Z,150
2017-09-27T13:43:40.866Z,145
2017-09-27T13:44:41.173Z,150
2017-09-27T13:45:41.095Z,150
2017-09-27T13:46:41.077Z,145
2017-09-27T13:47:41.055Z,145
2017-09-27T13:48:41.026Z,145
2017-09-27T13:49:41.007Z,140
2017-09-27T13:50:41.004Z,140
2017-09-27T13:51:40.981Z,140
2017-09-27T13:52:41.063Z,145
2017-09-27T13:53:40.926Z,145
2017-09-27T13:54:40.911Z,145
2017-09-27T13:55:40.888Z,145
2017-09-27T13:56:40.563Z,150
2017-09-27T13:57:40.851Z,150
2017-09-27T13:58:40.888Z,155
2017-09-27T13:59:40.510Z,155
2017-09-27T14:00:40.799Z,160
2017-09-27T14:01:40.778Z,155
2017-09-27T14:02:40.460Z,160
2017-09-27T14:03:40.125Z,160
2017-09-27T14:04:40.408Z,160
2017-09-27T14:05:40.408Z,160
2017-09-27T14:06:40.675Z,160
2017-09-27T14:07:40.351Z,155
2017-09-27T14:08:40.375Z,155
2017-09-27T14:09:40.622Z,155
2017-09-27T14:10:40.607Z,155
2017-09-27T14:11:40.580Z,155
2017-09-27T14:12:40.561Z,155
2017-09-27T14:13:40.241Z,150